createdAt,value
2019-06-08T00:00:47.946Z,35.88
2019-06-08T00:02:53.506Z,35.65
2019-06-08T00:04:59.094Z,31.62
2019-06-08T00:07:04.760Z,34.67
2019-06-08T00:09:10.318Z,39.70
2019-06-08T00:11:16.870Z,32.38
2019-06-08T00:13:23.260Z,33.88
2019-06-08T00:15:29.012Z,37.95
2019-06-08T00:17:38.780Z,39.60
2019-06-08T00:19:41.844Z,40.38
2019-06-08T00:21:47.399Z,36.08
2019-06-08T00:23:52.927Z,31.12
2019-06-08T00:25:58.475Z,32.13
2019-06-08T00:28:04.110Z,30.75
2019-06-08T00:30:09.822Z,28.98
2019-06-08T00:32:16.151Z,32.08
2019-06-08T00:34:22.698Z,33.18
2019-06-08T00:36:28.331Z,29.40
2019-06-08T00:38:33.946Z,31.77
2019-06-08T00:40:39.513Z,33.65
2019-06-08T00:42:45.068Z,31.85
2019-06-08T00:44:50.620Z,33.70
2019-06-08T00:46:56.194Z,29.63
2019-06-08T00:49:01.817Z,35.65
2019-06-08T00:51:07.431Z,29.87
2019-06-08T00:53:13.057Z,29.50
2019-06-08T00:55:19.463Z,29.98
2019-06-08T00:57:26.047Z,31.12
2019-06-08T00:59:31.768Z,32.38
2019-06-08T01:01:37.329Z,32.70
2019-06-08T01:03:42.853Z,31.48
2019-06-08T01:05:48.505Z,30.90
2019-06-08T01:07:54.134Z,32.58
2019-06-08T01:09:59.666Z,33.15
2019-06-08T01:12:06.448Z,33.80
2019-06-08T01:14:12.002Z,30.90
2019-06-08T01:16:18.725Z,34.13
2019-06-08T01:18:25.800Z,34.78
2019-06-08T01:20:31.505Z,34.88
2019-06-08T01:22:37.196Z,37.42
2019-06-08T01:24:43.727Z,40.48
2019-06-08T01:26:49.273Z,42.33
2019-06-08T01:28:54.815Z,40.50
2019-06-08T01:31:00.444Z,37.08
2019-06-08T01:33:05.994Z,35.70
2019-06-08T01:35:11.768Z,40.28
2019-06-08T01:37:17.334Z,36.38
2019-06-08T01:39:23.064Z,31.90
2019-06-08T01:41:29.626Z,35.52
2019-06-08T01:43:35.353Z,35.88
2019-06-08T01:45:40.908Z,36.42
2019-06-08T01:47:46.459Z,34.67
2019-06-08T01:49:52.029Z,40.80
2019-06-08T01:51:57.544Z,37.35
2019-06-08T01:54:03.090Z,34.00
2019-06-08T01:56:08.742Z,39.78
2019-06-08T01:58:14.359Z,40.20
2019-06-08T02:00:29.828Z,37.80
2019-06-08T02:02:27.911Z,35.15
2019-06-08T02:04:34.721Z,37.58
2019-06-08T02:06:40.646Z,38.15
2019-06-08T02:08:46.307Z,38.48
2019-06-08T02:10:51.935Z,40.17
2019-06-08T02:12:57.513Z,37.53
2019-06-08T02:15:03.764Z,35.28
2019-06-08T02:17:10.509Z,45.60
2019-06-08T02:19:16.046Z,38.17
2019-06-08T02:21:21.609Z,36.13
2019-06-08T02:23:27.156Z,38.78
2019-06-08T02:25:33.602Z,36.85
2019-06-08T02:27:39.721Z,37.53
2019-06-08T02:29:45.367Z,40.73
2019-06-08T02:31:50.912Z,38.92
2019-06-08T02:33:56.468Z,37.35
2019-06-08T02:36:02.021Z,37.20
2019-06-08T02:38:08.104Z,37.23
2019-06-08T02:40:15.636Z,37.10
2019-06-08T02:42:21.189Z,38.42
2019-06-08T02:44:28.279Z,37.83
2019-06-08T02:46:35.940Z,36.65
2019-06-08T02:49:00.257Z,33.00
2019-06-08T02:50:56.022Z,33.23
2019-06-08T02:53:01.659Z,34.60
2019-06-08T02:55:07.574Z,34.85
2019-06-08T02:57:14.525Z,36.55
2019-06-08T02:59:23.003Z,36.28
2019-06-08T03:01:31.579Z,36.95
2019-06-08T03:03:38.349Z,38.38
2019-06-08T03:05:44.907Z,35.92
2019-06-08T03:07:53.100Z,40.00
2019-06-08T03:09:59.708Z,41.28
2019-06-08T03:12:05.666Z,34.98
2019-06-08T03:14:11.222Z,38.38
2019-06-08T03:16:16.769Z,39.73
2019-06-08T03:18:22.422Z,38.05
2019-06-08T03:20:28.023Z,36.90
2019-06-08T03:22:34.331Z,37.58
2019-06-08T03:24:44.045Z,42.95
2019-06-08T03:26:48.992Z,40.67
2019-06-08T03:28:54.566Z,38.65
2019-06-08T03:31:00.180Z,38.67
2019-06-08T03:33:05.714Z,36.75
2019-06-08T03:35:11.372Z,32.75
2019-06-08T03:37:16.948Z,35.55
2019-06-08T03:39:22.470Z,37.53
2019-06-08T03:41:28.039Z,37.50
2019-06-08T03:43:35.233Z,36.20
2019-06-08T03:45:42.404Z,36.00
2019-06-08T03:47:48.112Z,37.70
2019-06-08T03:49:57.378Z,41.30
2019-06-08T03:52:00.838Z,36.60
2019-06-08T03:54:06.443Z,37.83
2019-06-08T03:56:12.006Z,40.67
2019-06-08T03:58:17.544Z,38.45
2019-06-08T04:00:23.447Z,37.40
2019-06-08T04:02:28.991Z,33.67
2019-06-08T04:04:34.544Z,38.78
2019-06-08T04:06:41.221Z,35.13
2019-06-08T04:08:47.602Z,40.85
2019-06-08T04:10:54.239Z,38.17
2019-06-08T04:12:59.777Z,37.40
2019-06-08T04:15:08.649Z,39.63
2019-06-08T04:17:14.249Z,36.05
2019-06-08T04:19:20.873Z,38.02
2019-06-08T04:21:26.432Z,39.80
2019-06-08T04:23:31.983Z,39.42
2019-06-08T04:25:38.285Z,36.00
2019-06-08T04:27:44.816Z,41.73
2019-06-08T04:29:50.824Z,35.68
2019-06-08T04:31:56.360Z,37.38
2019-06-08T04:34:01.911Z,37.28
2019-06-08T04:36:07.452Z,31.62
2019-06-08T04:38:13.002Z,35.50
2019-06-08T04:40:18.705Z,36.55
2019-06-08T04:42:24.256Z,37.70
2019-06-08T04:44:29.838Z,30.35
2019-06-08T04:46:35.458Z,31.73
2019-06-08T04:48:42.853Z,32.67
2019-06-08T04:50:49.801Z,32.78
2019-06-08T04:52:55.566Z,37.10
2019-06-08T04:55:01.103Z,34.60
2019-06-08T04:57:06.802Z,32.50
2019-06-08T04:59:12.352Z,27.87
2019-06-08T05:01:17.887Z,33.88
2019-06-08T05:03:23.433Z,26.45
2019-06-08T05:05:29.011Z,26.68
2019-06-08T05:07:34.547Z,29.92
2019-06-08T05:09:41.105Z,31.68
2019-06-08T05:11:47.518Z,29.95
2019-06-08T05:13:53.082Z,28.73
2019-06-08T05:15:58.662Z,29.75
2019-06-08T05:18:04.516Z,26.17
2019-06-08T05:20:11.004Z,27.48
2019-06-08T05:22:16.584Z,25.40
2019-06-08T05:24:22.145Z,26.95
2019-06-08T05:26:27.691Z,27.73
2019-06-08T05:28:33.249Z,27.77
2019-06-08T05:30:39.268Z,23.00
2019-06-08T05:32:45.925Z,25.92
2019-06-08T05:34:51.552Z,23.30
2019-06-08T05:36:57.121Z,22.62
2019-06-08T05:39:02.695Z,22.67
2019-06-08T05:41:08.361Z,21.37
2019-06-08T05:43:13.885Z,20.27
2019-06-08T05:45:20.123Z,23.98
2019-06-08T05:47:25.688Z,24.35
2019-06-08T05:49:31.219Z,19.98
2019-06-08T05:51:36.746Z,17.27
2019-06-08T05:53:42.319Z,17.65
2019-06-08T05:55:48.043Z,17.92
2019-06-08T05:57:53.625Z,18.73
2019-06-08T05:59:59.178Z,16.70
2019-06-08T06:02:04.811Z,16.87
2019-06-08T06:04:10.336Z,16.82
2019-06-08T06:06:15.878Z,15.50
2019-06-08T06:08:21.545Z,17.52
2019-06-08T06:10:28.131Z,13.88
2019-06-08T06:12:33.666Z,15.08
2019-06-08T06:14:39.237Z,16.67
2019-06-08T06:16:44.967Z,14.63
2019-06-08T06:18:52.191Z,15.25
2019-06-08T06:21:10.305Z,16.93
2019-06-08T06:23:05.156Z,21.27
2019-06-08T06:25:11.273Z,13.32
2019-06-08T06:27:16.825Z,17.27
2019-06-08T06:29:22.402Z,13.58
2019-06-08T06:31:27.981Z,13.28
2019-06-08T06:33:33.525Z,12.40
2019-06-08T06:35:39.120Z,12.03
2019-06-08T06:37:45.819Z,11.10
2019-06-08T06:39:52.252Z,14.93
2019-06-08T06:41:57.976Z,11.35
2019-06-08T06:44:03.678Z,11.70
2019-06-08T06:46:09.326Z,13.00
2019-06-08T06:48:14.940Z,11.63
2019-06-08T06:50:21.630Z,13.58
2019-06-08T06:52:27.156Z,15.40
2019-06-08T06:54:32.702Z,14.33
2019-06-08T06:56:38.284Z,12.43
2019-06-08T06:58:45.022Z,14.35
2019-06-08T07:00:51.539Z,61.65
2019-06-08T07:02:57.713Z,17.10
2019-06-08T07:05:03.779Z,15.43
2019-06-08T07:07:09.303Z,13.22
2019-06-08T07:09:14.883Z,14.28
2019-06-08T07:11:20.411Z,14.33
2019-06-08T07:13:25.972Z,11.88
2019-06-08T07:15:31.569Z,9.28
2019-06-08T07:17:37.255Z,13.78
2019-06-08T07:19:42.789Z,11.35
2019-06-08T07:21:48.408Z,14.95
2019-06-08T07:23:56.243Z,11.08
2019-06-08T07:26:01.983Z,12.58
2019-06-08T07:28:07.553Z,11.50
2019-06-08T07:30:13.338Z,10.75
2019-06-08T07:32:18.939Z,12.43
2019-06-08T07:34:24.493Z,12.45
2019-06-08T07:36:30.012Z,10.75
2019-06-08T07:38:36.677Z,11.20
2019-06-08T07:40:42.193Z,12.03
2019-06-08T07:42:49.364Z,11.95
2019-06-08T07:44:55.189Z,11.63
2019-06-08T07:47:00.783Z,12.10
2019-06-08T07:49:06.400Z,12.10
2019-06-08T07:51:12.014Z,12.75
2019-06-08T07:53:17.566Z,15.08
2019-06-08T07:55:23.136Z,11.22
2019-06-08T07:57:28.698Z,14.78
2019-06-08T07:59:34.546Z,8.55
2019-06-08T08:01:40.134Z,11.10
2019-06-08T08:03:45.679Z,12.98
2019-06-08T08:05:53.183Z,12.23
2019-06-08T08:07:59.023Z,13.78
2019-06-08T08:10:10.375Z,9.55
2019-06-08T08:12:16.016Z,11.45
2019-06-08T08:14:21.552Z,10.60
2019-06-08T08:16:27.312Z,11.45
2019-06-08T08:18:33.521Z,16.82
2019-06-08T08:20:39.169Z,14.10
2019-06-08T08:22:44.730Z,13.70
2019-06-08T08:24:53.421Z,15.80
2019-06-08T08:27:02.009Z,11.22
2019-06-08T08:29:04.856Z,11.68
2019-06-08T08:31:11.367Z,13.43
2019-06-08T08:33:18.398Z,10.15
2019-06-08T08:35:24.198Z,10.60
2019-06-08T08:37:29.847Z,11.40
2019-06-08T08:39:37.469Z,11.30
2019-06-08T08:41:43.600Z,9.88
2019-06-08T08:43:51.368Z,8.05
2019-06-08T08:45:59.130Z,11.00
2019-06-08T08:48:21.067Z,9.88
2019-06-08T08:50:12.805Z,13.05
2019-06-08T08:52:18.478Z,15.45
2019-06-08T08:54:27.517Z,11.12
2019-06-08T08:56:32.373Z,9.73
2019-06-08T08:58:38.142Z,9.30
2019-06-08T09:00:43.736Z,11.65
2019-06-08T09:02:59.068Z,10.23
2019-06-08T09:04:59.693Z,16.30
2019-06-08T09:07:07.797Z,9.30
2019-06-08T09:09:11.058Z,12.95
2019-06-08T09:11:17.598Z,14.63
2019-06-08T09:13:23.374Z,15.03
2019-06-08T09:15:31.500Z,18.82
2019-06-08T09:17:38.594Z,21.70
2019-06-08T09:19:43.365Z,19.62
2019-06-08T09:21:48.913Z,18.23
2019-06-08T09:23:56.485Z,21.07
2019-06-08T09:26:09.067Z,24.07
2019-06-08T09:28:09.945Z,16.87
2019-06-08T09:30:18.070Z,17.75
2019-06-08T09:32:22.845Z,21.45
2019-06-08T09:34:28.439Z,19.27
2019-06-08T09:36:33.957Z,16.00
2019-06-08T09:38:39.504Z,18.95
2019-06-08T09:40:45.069Z,15.45
2019-06-08T09:42:51.493Z,17.48
2019-06-08T09:45:00.370Z,14.45
2019-06-08T09:47:09.447Z,17.27
2019-06-08T09:49:12.297Z,16.65
2019-06-08T09:51:18.683Z,14.83
2019-06-08T09:53:34.203Z,13.43
2019-06-08T09:55:31.536Z,13.00
2019-06-08T09:57:38.485Z,14.70
2019-06-08T09:59:44.243Z,15.93
2019-06-08T10:01:49.765Z,19.20
2019-06-08T10:03:56.708Z,12.58
2019-06-08T10:06:08.008Z,13.10
2019-06-08T10:08:09.858Z,15.88
2019-06-08T10:10:17.999Z,14.80
2019-06-08T10:12:22.590Z,12.45
2019-06-08T10:14:28.306Z,14.83
2019-06-08T10:16:33.860Z,12.35
2019-06-08T10:18:39.441Z,13.43
2019-06-08T10:20:44.954Z,20.40
2019-06-08T10:22:50.636Z,16.07
2019-06-08T10:24:58.038Z,13.10
2019-06-08T10:27:03.581Z,12.28
2019-06-08T10:29:10.416Z,16.10
2019-06-08T10:31:17.595Z,13.20
2019-06-08T10:33:23.259Z,14.47
2019-06-08T10:35:28.792Z,12.28
2019-06-08T10:37:34.437Z,14.60
2019-06-08T10:39:39.974Z,16.23
2019-06-08T10:41:45.558Z,14.23
2019-06-08T10:43:51.169Z,13.28
2019-06-08T10:46:00.108Z,14.45
2019-06-08T10:48:04.820Z,10.88
2019-06-08T10:50:15.639Z,11.70
2019-06-08T10:52:20.820Z,10.93
2019-06-08T10:54:27.751Z,14.38
2019-06-08T10:56:33.446Z,14.07
2019-06-08T10:58:38.987Z,10.65
2019-06-08T11:00:44.493Z,12.93
2019-06-08T11:02:50.114Z,11.68
2019-06-08T11:05:00.253Z,10.85
2019-06-08T11:07:05.614Z,10.70
2019-06-08T11:09:14.334Z,12.88
2019-06-08T11:11:19.992Z,15.65
2019-06-08T11:13:24.617Z,10.70
2019-06-08T11:15:30.225Z,14.75
2019-06-08T11:17:37.761Z,15.48
2019-06-08T11:19:42.996Z,10.58
2019-06-08T11:21:48.596Z,14.50
2019-06-08T11:24:07.519Z,10.88
2019-06-08T11:26:04.655Z,11.83
2019-06-08T11:28:14.896Z,16.77
2019-06-08T11:30:23.506Z,11.15
2019-06-08T11:32:23.581Z,12.05
2019-06-08T11:34:29.097Z,12.88
2019-06-08T11:36:34.644Z,10.75
2019-06-08T11:38:40.163Z,12.98
2019-06-08T11:40:47.742Z,11.40
2019-06-08T11:42:53.941Z,12.78
2019-06-08T11:45:00.281Z,8.85
2019-06-08T11:47:09.431Z,7.72
2019-06-08T11:49:14.996Z,8.28
2019-06-08T11:51:20.405Z,7.50
2019-06-08T11:53:28.661Z,11.60
2019-06-08T11:55:33.190Z,9.08
2019-06-08T11:57:40.651Z,11.25
2019-06-08T11:59:48.516Z,13.03
2019-06-08T12:01:54.120Z,8.23
2019-06-08T12:03:59.668Z,9.15
2019-06-08T12:06:06.929Z,9.50
2019-06-08T12:08:12.880Z,8.75
2019-06-08T12:10:18.445Z,9.60
2019-06-08T12:12:23.964Z,6.03
2019-06-08T12:14:29.472Z,9.90
2019-06-08T12:16:34.997Z,6.65
2019-06-08T12:18:40.534Z,7.78
2019-06-08T12:20:48.682Z,4.60
2019-06-08T12:22:53.321Z,6.90
2019-06-08T12:24:58.817Z,6.25
2019-06-08T12:27:19.235Z,5.85
2019-06-08T12:29:13.470Z,8.88
2019-06-08T12:31:22.335Z,6.95
2019-06-08T12:33:30.528Z,10.70
2019-06-08T12:35:33.470Z,5.15
2019-06-08T12:37:38.978Z,8.40
2019-06-08T12:39:44.499Z,6.50
2019-06-08T12:41:49.997Z,7.15
2019-06-08T12:43:57.949Z,5.70
2019-06-08T12:46:02.658Z,10.35
2019-06-08T12:48:13.996Z,4.85
2019-06-08T12:50:16.561Z,7.03
2019-06-08T12:52:22.526Z,2.27
2019-06-08T12:54:28.440Z,2.40
2019-06-08T12:56:34.078Z,5.37
2019-06-08T12:58:39.784Z,2.52
2019-06-08T13:00:45.349Z,3.70
2019-06-08T13:02:51.026Z,7.28
2019-06-08T13:04:56.672Z,4.45
2019-06-08T13:07:02.175Z,4.10
2019-06-08T13:09:10.056Z,5.47
2019-06-08T13:11:15.820Z,4.05
2019-06-08T13:13:24.316Z,4.72
2019-06-08T13:15:30.983Z,3.77
2019-06-08T13:17:38.102Z,6.75
2019-06-08T13:19:43.428Z,7.03
2019-06-08T13:21:48.974Z,10.30
2019-06-08T13:23:55.053Z,6.85
2019-06-08T13:26:00.564Z,10.53
2019-06-08T13:28:12.246Z,5.47
2019-06-08T13:30:17.422Z,9.68
2019-06-08T13:32:22.041Z,5.58
2019-06-08T13:34:28.428Z,2.90
2019-06-08T13:36:34.000Z,5.85
2019-06-08T13:38:40.612Z,4.53
2019-06-08T13:40:48.437Z,5.47
2019-06-08T13:42:53.449Z,3.55
2019-06-08T13:44:59.005Z,4.25
2019-06-08T13:47:04.530Z,4.85
2019-06-08T13:49:10.040Z,4.40
2019-06-08T13:51:18.110Z,4.33
2019-06-08T13:53:27.909Z,2.15
2019-06-08T13:55:47.693Z,4.17
2019-06-08T13:57:37.910Z,2.77
2019-06-08T13:59:44.670Z,3.72
2019-06-08T14:01:53.276Z,5.08
2019-06-08T14:03:58.793Z,2.50
2019-06-08T14:06:04.362Z,3.15
2019-06-08T14:08:11.001Z,3.58
2019-06-08T14:10:22.257Z,7.12
2019-06-08T14:12:30.616Z,3.90
2019-06-08T14:14:34.126Z,1.98
2019-06-08T14:16:39.736Z,1.98
2019-06-08T14:18:45.295Z,3.20
2019-06-08T14:20:54.176Z,3.27
2019-06-08T14:22:58.844Z,2.17
2019-06-08T14:25:10.308Z,2.55
2019-06-08T14:27:13.248Z,2.70
2019-06-08T14:29:21.156Z,2.85
2019-06-08T14:31:29.961Z,3.45
2019-06-08T14:33:33.771Z,3.77
2019-06-08T14:35:39.518Z,3.17
2019-06-08T14:37:45.036Z,3.52
2019-06-08T14:39:50.584Z,3.98
2019-06-08T14:41:57.797Z,3.00
2019-06-08T14:44:03.389Z,2.17
2019-06-08T14:46:08.897Z,2.50
2019-06-08T14:48:14.426Z,3.98
2019-06-08T14:50:21.716Z,3.12
2019-06-08T14:52:29.721Z,4.05
2019-06-08T14:54:35.309Z,3.15
2019-06-08T14:56:40.964Z,3.25
2019-06-08T14:58:48.339Z,2.45
2019-06-08T15:00:53.670Z,4.70
2019-06-08T15:02:59.373Z,2.33
2019-06-08T15:05:07.787Z,4.97
2019-06-08T15:07:13.522Z,4.28
2019-06-08T15:09:19.453Z,2.52
2019-06-08T15:11:27.772Z,3.92
2019-06-08T15:13:32.256Z,5.45
2019-06-08T15:15:38.827Z,2.77
2019-06-08T15:17:44.332Z,4.80
2019-06-08T15:19:49.888Z,2.35
2019-06-08T15:21:55.419Z,4.62
2019-06-08T15:24:01.033Z,4.58
2019-06-08T15:26:20.467Z,5.90
2019-06-08T15:28:13.752Z,7.30
2019-06-08T15:30:20.854Z,3.60
2019-06-08T15:32:27.684Z,3.00
2019-06-08T15:34:33.908Z,9.65
2019-06-08T15:36:39.428Z,2.17
2019-06-08T15:38:47.837Z,3.72
2019-06-08T15:40:52.200Z,2.30
2019-06-08T15:42:58.540Z,1.57
2019-06-08T15:45:08.070Z,2.55
2019-06-08T15:47:13.092Z,4.83
2019-06-08T15:49:18.722Z,2.30
2019-06-08T15:51:24.380Z,2.15
2019-06-08T15:53:32.391Z,4.22
2019-06-08T15:55:37.981Z,3.02
2019-06-08T15:57:43.908Z,2.17
2019-06-08T15:59:49.439Z,2.30
2019-06-08T16:01:54.945Z,2.10
2019-06-08T16:04:03.936Z,3.17
2019-06-08T16:06:08.660Z,3.50
2019-06-08T16:08:14.209Z,4.87
2019-06-08T16:10:19.816Z,9.60
2019-06-08T16:12:26.207Z,2.10
2019-06-08T16:14:32.853Z,2.45
2019-06-08T16:16:38.477Z,2.58
2019-06-08T16:18:44.104Z,3.87
2019-06-08T16:20:49.706Z,2.25
2019-06-08T16:22:55.312Z,4.17
2019-06-08T16:25:00.849Z,3.90
2019-06-08T16:27:07.552Z,2.40
2019-06-08T16:29:14.149Z,4.20
2019-06-08T16:31:19.668Z,2.67
2019-06-08T16:33:27.309Z,5.42
2019-06-08T16:35:33.563Z,2.50
2019-06-08T16:37:39.913Z,9.45
2019-06-08T16:39:45.500Z,3.72
2019-06-08T16:41:51.032Z,2.52
2019-06-08T16:43:57.663Z,6.03
2019-06-08T16:46:03.178Z,3.15
2019-06-08T16:48:08.740Z,4.33
2019-06-08T16:50:24.159Z,3.27
2019-06-08T16:52:21.741Z,3.27
2019-06-08T16:54:28.485Z,3.45
2019-06-08T16:56:34.261Z,2.98
2019-06-08T16:58:39.797Z,4.80
2019-06-08T17:00:45.355Z,3.60
2019-06-08T17:02:50.915Z,4.62
2019-06-08T17:04:56.428Z,3.42
2019-06-08T17:07:02.240Z,2.58
2019-06-08T17:09:08.048Z,3.22
2019-06-08T17:11:13.569Z,2.30
2019-06-08T17:13:20.169Z,1.98
2019-06-08T17:15:25.774Z,4.70
2019-06-08T17:17:32.072Z,2.62
2019-06-08T17:19:38.444Z,2.60
2019-06-08T17:21:44.171Z,3.52
2019-06-08T17:23:49.726Z,4.92
2019-06-08T17:25:55.354Z,3.67
2019-06-08T17:28:02.156Z,4.08
2019-06-08T17:30:08.884Z,4.22
2019-06-08T17:32:14.517Z,5.22
2019-06-08T17:34:21.157Z,3.75
2019-06-08T17:36:28.079Z,6.65
2019-06-08T17:38:33.814Z,3.52
2019-06-08T17:40:40.121Z,3.72
2019-06-08T17:42:45.843Z,3.80
2019-06-08T17:44:51.403Z,3.17
2019-06-08T17:46:56.977Z,5.30
2019-06-08T17:49:02.482Z,3.87
2019-06-08T17:51:07.989Z,3.05
2019-06-08T17:53:13.561Z,3.33
2019-06-08T17:55:19.151Z,5.62
2019-06-08T17:57:24.660Z,2.92
2019-06-08T17:59:30.220Z,5.22
2019-06-08T18:01:36.019Z,2.47
2019-06-08T18:03:42.766Z,4.70
2019-06-08T18:05:49.162Z,2.72
2019-06-08T18:07:57.855Z,2.75
2019-06-08T18:10:08.074Z,3.22
2019-06-08T18:12:14.282Z,3.95
2019-06-08T18:14:20.177Z,4.28
2019-06-08T18:16:27.889Z,3.22
2019-06-08T18:18:34.132Z,3.17
2019-06-08T18:20:42.020Z,5.47
2019-06-08T18:22:49.284Z,3.77
2019-06-08T18:24:54.280Z,3.95
2019-06-08T18:26:59.891Z,5.05
2019-06-08T18:29:07.781Z,8.20
2019-06-08T18:31:12.634Z,6.03
2019-06-08T18:33:21.668Z,4.80
2019-06-08T18:35:27.860Z,4.35
2019-06-08T18:37:34.791Z,6.62
2019-06-08T18:39:42.747Z,4.17
2019-06-08T18:41:48.406Z,8.20
2019-06-08T18:43:54.101Z,9.38
2019-06-08T18:46:02.239Z,16.30
2019-06-08T18:48:08.875Z,14.78
2019-06-08T18:50:14.635Z,15.05
2019-06-08T18:52:22.035Z,8.00
2019-06-08T18:54:28.032Z,8.10
2019-06-08T18:56:36.310Z,9.88
2019-06-08T18:58:42.201Z,9.80
2019-06-08T19:00:51.156Z,9.30
2019-06-08T19:02:57.721Z,12.82
2019-06-08T19:05:02.154Z,9.55
2019-06-08T19:07:08.034Z,13.58
2019-06-08T19:09:13.661Z,8.45
2019-06-08T19:11:19.400Z,10.58
2019-06-08T19:13:27.016Z,9.70
2019-06-08T19:15:34.412Z,7.37
2019-06-08T19:17:45.879Z,9.38
2019-06-08T19:19:51.898Z,11.28
2019-06-08T19:21:54.488Z,10.13
2019-06-08T19:24:00.033Z,8.33
2019-06-08T19:26:07.536Z,8.78
2019-06-08T19:28:12.776Z,11.08
2019-06-08T19:30:20.356Z,9.58
2019-06-08T19:32:27.901Z,12.43
2019-06-08T19:34:33.464Z,13.18
2019-06-08T19:36:41.324Z,10.65
2019-06-08T19:38:50.785Z,12.60
2019-06-08T19:40:53.525Z,15.05
2019-06-08T19:43:01.479Z,18.75
2019-06-08T19:45:08.742Z,25.55
2019-06-08T19:47:14.474Z,27.32
2019-06-08T19:49:20.051Z,28.55
2019-06-08T19:51:27.629Z,32.30
2019-06-08T19:53:32.915Z,52.20
2019-06-08T19:55:39.392Z,49.70
2019-06-08T19:57:46.087Z,36.00
2019-06-08T19:59:52.214Z,25.85
2019-06-08T20:01:59.831Z,37.23
2019-06-08T20:04:07.274Z,32.78
2019-06-08T20:06:14.283Z,25.72
2019-06-08T20:08:19.384Z,16.77
2019-06-08T20:10:24.940Z,16.32
2019-06-08T20:12:30.488Z,18.37
2019-06-08T20:14:37.426Z,15.35
2019-06-08T20:16:43.151Z,19.77
2019-06-08T20:18:51.385Z,23.40
2019-06-08T20:20:58.581Z,26.17
2019-06-08T20:23:04.426Z,15.23
2019-06-08T20:25:11.048Z,15.88
2019-06-08T20:27:17.202Z,16.50
2019-06-08T20:29:22.978Z,19.52
2019-06-08T20:31:28.544Z,25.55
2019-06-08T20:33:37.859Z,20.32
2019-06-08T20:35:43.626Z,20.97
2019-06-08T20:37:50.219Z,23.80
2019-06-08T20:40:07.195Z,30.68
2019-06-08T20:42:04.114Z,18.42
2019-06-08T20:44:09.649Z,18.45
2019-06-08T20:46:17.127Z,14.05
2019-06-08T20:48:22.339Z,16.93
2019-06-08T20:50:27.921Z,16.00
2019-06-08T20:52:34.211Z,14.35
2019-06-08T20:54:39.756Z,15.55
2019-06-08T20:56:47.532Z,14.60
2019-06-08T20:58:53.706Z,17.57
2019-06-08T21:00:59.655Z,13.03
2019-06-08T21:03:07.966Z,15.23
2019-06-08T21:05:12.996Z,14.25
2019-06-08T21:07:18.546Z,14.85
2019-06-08T21:09:24.058Z,14.00
2019-06-08T21:11:29.635Z,15.83
2019-06-08T21:13:37.360Z,12.68
2019-06-08T21:15:42.380Z,20.32
2019-06-08T21:17:50.691Z,17.10
2019-06-08T21:19:57.744Z,17.30
2019-06-08T21:22:36.493Z,16.95
2019-06-08T21:24:45.767Z,18.80
2019-06-08T21:26:56.520Z,21.95
2019-06-08T21:29:01.971Z,18.42
2019-06-08T21:31:08.476Z,20.45
2019-06-08T21:33:14.297Z,17.85
2019-06-08T21:35:19.844Z,13.95
2019-06-08T21:37:27.895Z,15.40
2019-06-08T21:39:35.788Z,21.30
2019-06-08T21:41:39.749Z,17.20
2019-06-08T21:43:45.336Z,20.88
2019-06-08T21:45:51.941Z,18.67
2019-06-08T21:47:59.973Z,23.62
2019-06-08T21:50:08.092Z,23.42
2019-06-08T21:52:13.306Z,22.42
2019-06-08T21:54:18.901Z,22.20
2019-06-08T21:56:24.556Z,20.68
2019-06-08T21:58:30.109Z,20.80
2019-06-08T22:00:43.053Z,24.52
2019-06-08T22:02:47.935Z,23.07
2019-06-08T22:05:02.696Z,23.25
2019-06-08T22:07:07.682Z,25.17
2019-06-08T22:09:17.665Z,18.67
2019-06-08T22:11:23.222Z,22.48
2019-06-08T22:13:28.854Z,20.10
2019-06-08T22:15:34.969Z,18.42
2019-06-08T22:17:40.471Z,22.87
2019-06-08T22:19:47.721Z,22.80
2019-06-08T22:21:53.736Z,22.70
2019-06-08T22:24:00.789Z,22.55
2019-06-08T22:26:08.331Z,23.15
2019-06-08T22:28:13.777Z,26.87
2019-06-08T22:30:35.204Z,23.40
2019-06-08T22:32:27.680Z,22.20
2019-06-08T22:34:33.546Z,25.37
2019-06-08T22:36:39.111Z,27.90
2019-06-08T22:38:44.724Z,27.75
2019-06-08T22:40:50.248Z,24.32
2019-06-08T22:42:57.786Z,27.60
2019-06-08T22:45:03.921Z,26.00
2019-06-08T22:47:10.511Z,24.43
2019-06-08T22:49:18.473Z,26.95
2019-06-08T22:51:23.251Z,25.80
2019-06-08T22:53:28.788Z,26.75
2019-06-08T22:55:34.350Z,26.95
2019-06-08T22:57:39.869Z,28.95
2019-06-08T22:59:47.612Z,31.68
2019-06-08T23:01:53.374Z,30.32
2019-06-08T23:04:02.267Z,24.77
2019-06-08T23:06:08.897Z,26.40
2019-06-08T23:08:14.388Z,26.62
2019-06-08T23:10:20.082Z,23.42
2019-06-08T23:12:28.667Z,25.20
2019-06-08T23:14:33.729Z,24.05
2019-06-08T23:16:39.258Z,25.85
2019-06-08T23:18:44.803Z,26.02
2019-06-08T23:20:50.366Z,20.50
2019-06-08T23:22:58.213Z,26.97
2019-06-08T23:25:04.431Z,21.97
2019-06-08T23:27:10.136Z,21.60
2019-06-08T23:29:17.749Z,20.80
2019-06-08T23:31:25.650Z,26.60
2019-06-08T23:33:30.072Z,24.65
2019-06-08T23:35:51.343Z,23.52
2019-06-08T23:37:42.825Z,21.90
2019-06-08T23:39:48.360Z,19.07
2019-06-08T23:41:53.891Z,17.85
2019-06-08T23:43:59.562Z,18.50
2019-06-08T23:46:05.716Z,19.75
2019-06-08T23:48:11.385Z,21.30
2019-06-08T23:50:17.898Z,21.70
2019-06-08T23:52:23.559Z,20.85
2019-06-08T23:54:29.157Z,24.60
2019-06-08T23:56:36.937Z,19.60
2019-06-08T23:58:41.845Z,18.45
